Four Corners Regional Airport
KFMN : now visible

Airfield :











YOU CAN JOIN US ON...

 
LOGIN :

Register | Disclaimer

   EN    FR    IT 

 









Legend :    VFR   Marginal VFR   IFR   Intensive IFR   Very Intensive IFR
Visi :
Ceiling :
>= 8 km
>= 3000ft
5 to 8 km
1000 to 3000 ft
1500m to 5 km
500 to 1000 ft
800 to 1500m
200 to 500 ft
< 800m
< 200 ft
Symbols :   Thunderstorms  Fog  Heavy snow  Heavy precipitations  Wind > 20 kt







- Airport Elevation : 5506 ft


KFMN - Four Corners Regional

CURRENT METAR :
  • 191353Z 10008KT 10SM CLR 19/01 A3011 RMK AO2 SLP121 T01890011

EXPIRED METARs :
  • 191253Z 07006KT 10SM CLR 16/02 A3009 RMK AO2 SLP121 T01610017
  • 191153Z 05005KT 10SM CLR 14/M01 A3007 RMK AO2 SLP116 7//// T01391006 10211 20139 53011

TAF KFMN
Valid from the 19 at 12:00 until the 20 at 12:00 UTC


191129Z 1912/2012 07006KT P6SM SKC
FM191800 28013G19KT P6SM SCT120
FM200200 30010KT P6SM SCT120
FM200600 04006KT P6SM BKN120
KZDV FIR / North America



MET'MAP, your aeronautical weather chart ! - Copyright ORBIFLY December 2007 - Disclaimer

ORBIFLY MET'MAP TEAM :

Programming & Development : Alexandra Zaïnal
Concept & Development : Baudouin d'Aumeries
Co-Development & Prog : Marc-Olivier Méhu
Technical & hardware support : Manuel Goepfert

Contact : metmap@orbifly.com




SOURCES & CREDITS :

   NOAA       Earth
Advisory